sensor_id;sensor_type;location;lat;lon;timestamp;P1;durP1;ratioP1;P2;durP2;ratioP2
50709;SDS011;37033;49.994;21.992;2022-10-31T00:00:30;27.10;;;15.70;;
50709;SDS011;37033;49.994;21.992;2022-10-31T00:03:37;28.10;;;14.80;;
50709;SDS011;37033;49.994;21.992;2022-10-31T00:06:27;28.20;;;14.80;;
50709;SDS011;37033;49.994;21.992;2022-10-31T00:09:18;28.80;;;15.80;;
50709;SDS011;37033;49.994;21.992;2022-10-31T00:12:08;27.60;;;14.80;;
50709;SDS011;37033;49.994;21.992;2022-10-31T00:14:58;32.10;;;16.00;;
50709;SDS011;37033;49.994;21.992;2022-10-31T00:17:49;25.20;;;13.80;;
50709;SDS011;37033;49.994;21.992;2022-10-31T00:20:39;24.10;;;14.30;;
50709;SDS011;37033;49.994;21.992;2022-10-31T00:23:29;24.70;;;14.30;;
50709;SDS011;37033;49.994;21.992;2022-10-31T00:26:19;24.80;;;14.20;;
50709;SDS011;37033;49.994;21.992;2022-10-31T00:29:09;31.00;;;15.70;;
50709;SDS011;37033;49.994;21.992;2022-10-31T00:32:00;26.00;;;14.70;;
50709;SDS011;37033;49.994;21.992;2022-10-31T00:34:50;25.80;;;14.80;;
50709;SDS011;37033;49.994;21.992;2022-10-31T00:37:40;22.00;;;12.70;;
50709;SDS011;37033;49.994;21.992;2022-10-31T00:40:30;27.70;;;15.10;;
50709;SDS011;37033;49.994;21.992;2022-10-31T00:43:21;24.40;;;13.10;;
50709;SDS011;37033;49.994;21.992;2022-10-31T00:46:12;25.60;;;14.10;;
50709;SDS011;37033;49.994;21.992;2022-10-31T00:49:03;26.60;;;14.50;;
50709;SDS011;37033;49.994;21.992;2022-10-31T00:51:53;29.40;;;14.10;;
50709;SDS011;37033;49.994;21.992;2022-10-31T00:54:43;22.50;;;13.60;;
50709;SDS011;37033;49.994;21.992;2022-10-31T00:57:33;27.00;;;14.30;;
50709;SDS011;37033;49.994;21.992;2022-10-31T01:00:23;23.00;;;13.10;;
50709;SDS011;37033;49.994;21.992;2022-10-31T01:03:14;24.40;;;13.20;;
50709;SDS011;37033;49.994;21.992;2022-10-31T01:06:06;23.90;;;14.10;;
50709;SDS011;37033;49.994;21.992;2022-10-31T01:08:58;26.30;;;13.90;;
50709;SDS011;37033;49.994;21.992;2022-10-31T01:11:47;24.00;;;14.20;;
50709;SDS011;37033;49.994;21.992;2022-10-31T01:14:38;26.30;;;13.90;;
50709;SDS011;37033;49.994;21.992;2022-10-31T01:17:30;26.90;;;14.20;;
50709;SDS011;37033;49.994;21.992;2022-10-31T01:20:20;24.30;;;13.60;;
50709;SDS011;37033;49.994;21.992;2022-10-31T01:23:11;24.80;;;14.00;;
50709;SDS011;37033;49.994;21.992;2022-10-31T01:26:05;21.60;;;12.10;;
50709;SDS011;37033;49.994;21.992;2022-10-31T01:28:58;21.70;;;12.60;;
50709;SDS011;37033;49.994;21.992;2022-10-31T01:31:50;25.10;;;14.00;;
50709;SDS011;37033;49.994;21.992;2022-10-31T01:34:40;20.60;;;11.90;;
50709;SDS011;37033;49.994;21.992;2022-10-31T01:37:31;23.30;;;12.60;;
50709;SDS011;37033;49.994;21.992;2022-10-31T01:40:21;21.50;;;13.30;;
50709;SDS011;37033;49.994;21.992;2022-10-31T01:43:13;22.70;;;11.90;;
50709;SDS011;37033;49.994;21.992;2022-10-31T01:46:03;21.30;;;11.20;;
50709;SDS011;37033;49.994;21.992;2022-10-31T01:48:53;18.70;;;12.50;;
50709;SDS011;37033;49.994;21.992;2022-10-31T01:51:47;21.60;;;12.10;;
50709;SDS011;37033;49.994;21.992;2022-10-31T01:54:45;18.50;;;11.80;;
50709;SDS011;37033;49.994;21.992;2022-10-31T01:57:41;19.00;;;12.50;;
50709;SDS011;37033;49.994;21.992;2022-10-31T02:00:35;19.60;;;11.50;;
50709;SDS011;37033;49.994;21.992;2022-10-31T02:03:25;19.90;;;11.70;;
50709;SDS011;37033;49.994;21.992;2022-10-31T02:06:21;18.90;;;12.90;;
50709;SDS011;37033;49.994;21.992;2022-10-31T02:09:15;18.80;;;10.70;;
50709;SDS011;37033;49.994;21.992;2022-10-31T02:12:10;23.60;;;12.50;;
50709;SDS011;37033;49.994;21.992;2022-10-31T02:15:01;21.50;;;12.00;;
50709;SDS011;37033;49.994;21.992;2022-10-31T02:17:53;18.50;;;12.10;;
50709;SDS011;37033;49.994;21.992;2022-10-31T02:20:47;23.30;;;12.30;;
50709;SDS011;37033;49.994;21.992;2022-10-31T02:27:24;17.90;;;10.80;;
50709;SDS011;37033;49.994;21.992;2022-10-31T02:30:38;18.00;;;11.30;;
50709;SDS011;37033;49.994;21.992;2022-10-31T02:33:31;19.70;;;10.90;;
50709;SDS011;37033;49.994;21.992;2022-10-31T02:36:31;19.10;;;11.80;;
50709;SDS011;37033;49.994;21.992;2022-10-31T02:39:29;24.20;;;11.30;;
50709;SDS011;37033;49.994;21.992;2022-10-31T02:42:26;21.90;;;11.60;;
50709;SDS011;37033;49.994;21.992;2022-10-31T02:45:24;16.70;;;9.50;;
50709;SDS011;37033;49.994;21.992;2022-10-31T02:48:18;15.60;;;10.60;;
50709;SDS011;37033;49.994;21.992;2022-10-31T02:51:13;16.10;;;10.20;;
50709;SDS011;37033;49.994;21.992;2022-10-31T02:54:14;19.80;;;11.40;;
50709;SDS011;37033;49.994;21.992;2022-10-31T02:57:07;20.30;;;11.40;;
50709;SDS011;37033;49.994;21.992;2022-10-31T02:59:58;16.00;;;9.90;;
50709;SDS011;37033;49.994;21.992;2022-10-31T03:02:55;21.20;;;11.60;;
50709;SDS011;37033;49.994;21.992;2022-10-31T03:05:54;18.00;;;11.50;;
50709;SDS011;37033;49.994;21.992;2022-10-31T03:08:49;21.30;;;11.10;;
50709;SDS011;37033;49.994;21.992;2022-10-31T03:14:38;17.90;;;11.10;;
50709;SDS011;37033;49.994;21.992;2022-10-31T03:17:36;19.90;;;11.20;;
50709;SDS011;37033;49.994;21.992;2022-10-31T03:23:21;17.10;;;9.30;;
50709;SDS011;37033;49.994;21.992;2022-10-31T03:26:13;18.90;;;11.00;;
50709;SDS011;37033;49.994;21.992;2022-10-31T03:29:05;14.20;;;10.10;;
50709;SDS011;37033;49.994;21.992;2022-10-31T03:31:59;19.50;;;11.30;;
50709;SDS011;37033;49.994;21.992;2022-10-31T03:34:53;14.50;;;10.10;;
50709;SDS011;37033;49.994;21.992;2022-10-31T03:37:47;19.20;;;10.50;;
50709;SDS011;37033;49.994;21.992;2022-10-31T03:40:42;20.00;;;11.50;;
50709;SDS011;37033;49.994;21.992;2022-10-31T03:43:37;15.50;;;9.90;;
50709;SDS011;37033;49.994;21.992;2022-10-31T03:46:30;19.80;;;11.10;;
50709;SDS011;37033;49.994;21.992;2022-10-31T03:49:20;14.70;;;9.90;;
50709;SDS011;37033;49.994;21.992;2022-10-31T03:52:13;22.30;;;11.20;;
50709;SDS011;37033;49.994;21.992;2022-10-31T03:55:09;16.00;;;10.10;;
50709;SDS011;37033;49.994;21.992;2022-10-31T03:58:05;18.50;;;10.30;;
50709;SDS011;37033;49.994;21.992;2022-10-31T04:00:59;14.60;;;9.90;;
50709;SDS011;37033;49.994;21.992;2022-10-31T04:03:51;18.60;;;9.80;;
50709;SDS011;37033;49.994;21.992;2022-10-31T04:06:43;16.80;;;10.40;;
50709;SDS011;37033;49.994;21.992;2022-10-31T04:09:35;17.40;;;11.00;;
50709;SDS011;37033;49.994;21.992;2022-10-31T04:12:29;17.50;;;10.00;;
50709;SDS011;37033;49.994;21.992;2022-10-31T04:15:22;18.90;;;10.20;;
50709;SDS011;37033;49.994;21.992;2022-10-31T04:18:14;14.00;;;9.60;;
50709;SDS011;37033;49.994;21.992;2022-10-31T04:21:06;16.00;;;10.40;;
50709;SDS011;37033;49.994;21.992;2022-10-31T04:23:57;14.50;;;9.40;;
50709;SDS011;37033;49.994;21.992;2022-10-31T04:26:47;15.40;;;10.20;;
50709;SDS011;37033;49.994;21.992;2022-10-31T04:29:37;16.00;;;10.40;;
50709;SDS011;37033;49.994;21.992;2022-10-31T04:32:27;14.20;;;9.60;;
50709;SDS011;37033;49.994;21.992;2022-10-31T04:35:18;21.10;;;10.70;;
50709;SDS011;37033;49.994;21.992;2022-10-31T04:38:08;16.30;;;10.10;;
50709;SDS011;37033;49.994;21.992;2022-10-31T04:40:59;17.70;;;10.90;;
50709;SDS011;37033;49.994;21.992;2022-10-31T04:43:49;17.10;;;10.90;;
50709;SDS011;37033;49.994;21.992;2022-10-31T04:46:39;16.80;;;10.60;;
50709;SDS011;37033;49.994;21.992;2022-10-31T04:49:30;22.40;;;12.30;;
50709;SDS011;37033;49.994;21.992;2022-10-31T04:52:21;18.00;;;11.10;;
50709;SDS011;37033;49.994;21.992;2022-10-31T04:55:11;18.40;;;10.80;;
50709;SDS011;37033;49.994;21.992;2022-10-31T04:58:02;17.30;;;10.70;;
50709;SDS011;37033;49.994;21.992;2022-10-31T05:00:53;17.50;;;10.30;;
50709;SDS011;37033;49.994;21.992;2022-10-31T05:03:44;12.00;;;9.00;;
50709;SDS011;37033;49.994;21.992;2022-10-31T05:06:34;16.30;;;9.50;;
50709;SDS011;37033;49.994;21.992;2022-10-31T05:09:24;14.60;;;9.60;;
50709;SDS011;37033;49.994;21.992;2022-10-31T05:12:16;16.10;;;10.10;;
50709;SDS011;37033;49.994;21.992;2022-10-31T05:15:07;13.30;;;9.20;;
50709;SDS011;37033;49.994;21.992;2022-10-31T05:17:58;17.80;;;10.60;;
50709;SDS011;37033;49.994;21.992;2022-10-31T05:20:48;19.70;;;11.20;;
50709;SDS011;37033;49.994;21.992;2022-10-31T05:23:38;16.40;;;9.20;;
50709;SDS011;37033;49.994;21.992;2022-10-31T05:26:29;14.20;;;10.30;;
50709;SDS011;37033;49.994;21.992;2022-10-31T05:29:19;16.20;;;9.80;;
50709;SDS011;37033;49.994;21.992;2022-10-31T05:32:10;14.20;;;9.30;;
50709;SDS011;37033;49.994;21.992;2022-10-31T05:35:00;15.30;;;9.40;;
50709;SDS011;37033;49.994;21.992;2022-10-31T05:37:51;17.50;;;9.90;;
50709;SDS011;37033;49.994;21.992;2022-10-31T05:40:41;14.70;;;8.80;;
50709;SDS011;37033;49.994;21.992;2022-10-31T05:43:31;14.20;;;9.10;;
50709;SDS011;37033;49.994;21.992;2022-10-31T05:46:22;18.00;;;9.70;;
50709;SDS011;37033;49.994;21.992;2022-10-31T05:49:12;15.10;;;8.70;;
50709;SDS011;37033;49.994;21.992;2022-10-31T05:52:03;13.80;;;8.90;;
50709;SDS011;37033;49.994;21.992;2022-10-31T05:54:53;17.50;;;8.70;;
50709;SDS011;37033;49.994;21.992;2022-10-31T05:57:44;17.00;;;9.10;;
50709;SDS011;37033;49.994;21.992;2022-10-31T06:00:34;15.50;;;9.20;;
50709;SDS011;37033;49.994;21.992;2022-10-31T06:03:25;15.50;;;10.10;;
50709;SDS011;37033;49.994;21.992;2022-10-31T06:06:15;16.30;;;10.60;;
50709;SDS011;37033;49.994;21.992;2022-10-31T06:09:05;17.60;;;9.80;;
50709;SDS011;37033;49.994;21.992;2022-10-31T06:11:55;15.70;;;9.80;;
50709;SDS011;37033;49.994;21.992;2022-10-31T06:14:45;14.70;;;9.20;;
50709;SDS011;37033;49.994;21.992;2022-10-31T06:17:35;31.00;;;17.80;;
50709;SDS011;37033;49.994;21.992;2022-10-31T06:20:26;14.90;;;10.90;;
50709;SDS011;37033;49.994;21.992;2022-10-31T06:23:16;16.50;;;10.50;;
50709;SDS011;37033;49.994;21.992;2022-10-31T06:26:07;20.00;;;11.90;;
50709;SDS011;37033;49.994;21.992;2022-10-31T06:28:57;20.80;;;11.20;;
50709;SDS011;37033;49.994;21.992;2022-10-31T06:31:47;16.20;;;9.70;;
50709;SDS011;37033;49.994;21.992;2022-10-31T06:34:41;17.80;;;9.90;;
50709;SDS011;37033;49.994;21.992;2022-10-31T06:37:31;18.60;;;10.70;;
50709;SDS011;37033;49.994;21.992;2022-10-31T06:40:22;17.30;;;9.50;;
50709;SDS011;37033;49.994;21.992;2022-10-31T06:43:12;24.40;;;9.60;;
50709;SDS011;37033;49.994;21.992;2022-10-31T06:46:03;21.50;;;9.50;;
50709;SDS011;37033;49.994;21.992;2022-10-31T06:48:54;19.70;;;10.50;;
50709;SDS011;37033;49.994;21.992;2022-10-31T06:51:46;12.60;;;9.00;;
50709;SDS011;37033;49.994;21.992;2022-10-31T06:54:37;16.80;;;9.90;;
50709;SDS011;37033;49.994;21.992;2022-10-31T06:57:27;15.40;;;8.50;;
50709;SDS011;37033;49.994;21.992;2022-10-31T07:00:17;14.80;;;9.60;;
50709;SDS011;37033;49.994;21.992;2022-10-31T07:03:10;16.10;;;9.40;;
50709;SDS011;37033;49.994;21.992;2022-10-31T07:06:02;12.40;;;8.40;;
50709;SDS011;37033;49.994;21.992;2022-10-31T07:08:52;14.00;;;9.20;;
50709;SDS011;37033;49.994;21.992;2022-10-31T07:11:43;16.20;;;8.80;;
50709;SDS011;37033;49.994;21.992;2022-10-31T07:14:33;14.00;;;9.50;;
50709;SDS011;37033;49.994;21.992;2022-10-31T07:17:24;14.20;;;9.30;;
50709;SDS011;37033;49.994;21.992;2022-10-31T07:20:14;11.80;;;7.20;;
50709;SDS011;37033;49.994;21.992;2022-10-31T07:23:05;14.90;;;9.60;;
50709;SDS011;37033;49.994;21.992;2022-10-31T07:25:56;16.10;;;9.50;;
50709;SDS011;37033;49.994;21.992;2022-10-31T07:28:47;15.20;;;9.40;;
50709;SDS011;37033;49.994;21.992;2022-10-31T07:31:38;11.70;;;8.90;;
50709;SDS011;37033;49.994;21.992;2022-10-31T07:34:28;20.10;;;10.60;;
50709;SDS011;37033;49.994;21.992;2022-10-31T07:37:18;14.90;;;10.00;;
50709;SDS011;37033;49.994;21.992;2022-10-31T07:40:09;14.40;;;9.70;;
50709;SDS011;37033;49.994;21.992;2022-10-31T07:43:01;15.00;;;8.50;;
50709;SDS011;37033;49.994;21.992;2022-10-31T07:45:51;14.60;;;7.90;;
50709;SDS011;37033;49.994;21.992;2022-10-31T07:48:42;21.50;;;9.30;;
50709;SDS011;37033;49.994;21.992;2022-10-31T07:51:32;13.60;;;8.80;;
50709;SDS011;37033;49.994;21.992;2022-10-31T07:54:22;17.50;;;8.70;;
50709;SDS011;37033;49.994;21.992;2022-10-31T07:57:13;15.20;;;9.40;;
50709;SDS011;37033;49.994;21.992;2022-10-31T08:00:04;14.80;;;8.40;;
50709;SDS011;37033;49.994;21.992;2022-10-31T08:03:00;15.30;;;8.00;;
50709;SDS011;37033;49.994;21.992;2022-10-31T08:05:52;9.20;;;6.90;;
50709;SDS011;37033;49.994;21.992;2022-10-31T08:08:42;11.90;;;7.20;;
50709;SDS011;37033;49.994;21.992;2022-10-31T08:11:32;11.30;;;6.60;;
50709;SDS011;37033;49.994;21.992;2022-10-31T08:14:23;8.90;;;6.50;;
50709;SDS011;37033;49.994;21.992;2022-10-31T08:17:13;7.10;;;5.90;;
50709;SDS011;37033;49.994;21.992;2022-10-31T08:20:03;8.40;;;6.20;;
50709;SDS011;37033;49.994;21.992;2022-10-31T08:22:58;9.60;;;7.10;;
50709;SDS011;37033;49.994;21.992;2022-10-31T08:25:49;6.90;;;5.60;;
50709;SDS011;37033;49.994;21.992;2022-10-31T08:28:40;7.90;;;6.40;;
50709;SDS011;37033;49.994;21.992;2022-10-31T08:31:30;9.90;;;6.40;;
50709;SDS011;37033;49.994;21.992;2022-10-31T08:34:21;11.80;;;5.80;;
50709;SDS011;37033;49.994;21.992;2022-10-31T08:37:12;30.70;;;8.20;;
50709;SDS011;37033;49.994;21.992;2022-10-31T08:40:07;8.70;;;5.40;;
50709;SDS011;37033;49.994;21.992;2022-10-31T08:43:00;11.20;;;5.70;;
50709;SDS011;37033;49.994;21.992;2022-10-31T08:45:51;6.80;;;5.50;;
50709;SDS011;37033;49.994;21.992;2022-10-31T08:48:41;10.40;;;6.70;;
50709;SDS011;37033;49.994;21.992;2022-10-31T08:51:32;10.60;;;6.60;;
50709;SDS011;37033;49.994;21.992;2022-10-31T08:54:22;8.30;;;5.70;;
50709;SDS011;37033;49.994;21.992;2022-10-31T08:57:12;10.50;;;5.70;;
50709;SDS011;37033;49.994;21.992;2022-10-31T09:00:03;8.80;;;4.90;;
50709;SDS011;37033;49.994;21.992;2022-10-31T09:02:58;6.90;;;4.90;;
50709;SDS011;37033;49.994;21.992;2022-10-31T09:05:53;12.80;;;4.70;;
50709;SDS011;37033;49.994;21.992;2022-10-31T09:08:45;7.50;;;5.60;;
50709;SDS011;37033;49.994;21.992;2022-10-31T09:11:35;6.60;;;4.70;;
50709;SDS011;37033;49.994;21.992;2022-10-31T09:14:25;8.90;;;5.50;;
50709;SDS011;37033;49.994;21.992;2022-10-31T09:17:15;8.50;;;4.50;;
50709;SDS011;37033;49.994;21.992;2022-10-31T09:20:06;5.80;;;4.60;;
50709;SDS011;37033;49.994;21.992;2022-10-31T09:22:59;6.20;;;4.90;;
50709;SDS011;37033;49.994;21.992;2022-10-31T09:25:52;12.00;;;4.30;;
50709;SDS011;37033;49.994;21.992;2022-10-31T09:28:43;5.10;;;4.40;;
50709;SDS011;37033;49.994;21.992;2022-10-31T09:31:33;8.80;;;4.40;;
50709;SDS011;37033;49.994;21.992;2022-10-31T09:34:24;8.10;;;4.00;;
50709;SDS011;37033;49.994;21.992;2022-10-31T09:37:14;7.40;;;3.70;;
50709;SDS011;37033;49.994;21.992;2022-10-31T09:40:05;7.10;;;4.30;;
50709;SDS011;37033;49.994;21.992;2022-10-31T09:42:58;12.50;;;5.00;;
50709;SDS011;37033;49.994;21.992;2022-10-31T09:45:58;5.80;;;3.80;;
50709;SDS011;37033;49.994;21.992;2022-10-31T09:49:01;5.10;;;3.70;;
50709;SDS011;37033;49.994;21.992;2022-10-31T09:52:11;5.80;;;4.10;;
50709;SDS011;37033;49.994;21.992;2022-10-31T09:55:08;6.10;;;4.00;;
50709;SDS011;37033;49.994;21.992;2022-10-31T09:58:05;4.70;;;3.30;;
50709;SDS011;37033;49.994;21.992;2022-10-31T10:01:01;6.40;;;4.30;;
50709;SDS011;37033;49.994;21.992;2022-10-31T10:03:55;11.30;;;3.70;;
50709;SDS011;37033;49.994;21.992;2022-10-31T10:06:50;8.00;;;4.10;;
50709;SDS011;37033;49.994;21.992;2022-10-31T10:09:41;8.20;;;4.00;;
50709;SDS011;37033;49.994;21.992;2022-10-31T10:12:37;8.60;;;3.90;;
50709;SDS011;37033;49.994;21.992;2022-10-31T10:15:53;5.70;;;4.70;;
50709;SDS011;37033;49.994;21.992;2022-10-31T10:18:56;4.90;;;4.10;;
50709;SDS011;37033;49.994;21.992;2022-10-31T10:21:56;9.30;;;3.80;;
50709;SDS011;37033;49.994;21.992;2022-10-31T10:24:56;13.80;;;4.50;;
50709;SDS011;37033;49.994;21.992;2022-10-31T10:28:00;5.60;;;3.80;;
50709;SDS011;37033;49.994;21.992;2022-10-31T10:30:59;11.90;;;4.00;;
50709;SDS011;37033;49.994;21.992;2022-10-31T10:33:58;8.90;;;4.20;;
50709;SDS011;37033;49.994;21.992;2022-10-31T10:36:52;11.50;;;4.20;;
50709;SDS011;37033;49.994;21.992;2022-10-31T10:39:46;8.20;;;4.00;;
50709;SDS011;37033;49.994;21.992;2022-10-31T10:42:40;6.70;;;3.70;;
50709;SDS011;37033;49.994;21.992;2022-10-31T10:45:53;9.40;;;6.00;;
50709;SDS011;37033;49.994;21.992;2022-10-31T10:49:14;9.70;;;5.10;;
50709;SDS011;37033;49.994;21.992;2022-10-31T10:52:08;8.60;;;4.90;;
50709;SDS011;37033;49.994;21.992;2022-10-31T10:55:08;7.70;;;4.80;;
50709;SDS011;37033;49.994;21.992;2022-10-31T10:58:06;6.50;;;4.30;;
50709;SDS011;37033;49.994;21.992;2022-10-31T11:00:57;7.10;;;4.20;;
50709;SDS011;37033;49.994;21.992;2022-10-31T11:03:47;7.40;;;4.30;;
50709;SDS011;37033;49.994;21.992;2022-10-31T11:06:38;9.20;;;6.30;;
50709;SDS011;37033;49.994;21.992;2022-10-31T11:09:28;6.60;;;5.30;;
50709;SDS011;37033;49.994;21.992;2022-10-31T11:12:19;7.80;;;5.00;;
50709;SDS011;37033;49.994;21.992;2022-10-31T11:15:22;14.00;;;4.70;;
50709;SDS011;37033;49.994;21.992;2022-10-31T11:18:17;9.00;;;4.70;;
50709;SDS011;37033;49.994;21.992;2022-10-31T11:21:20;8.90;;;3.80;;
50709;SDS011;37033;49.994;21.992;2022-10-31T11:24:14;8.30;;;4.40;;
50709;SDS011;37033;49.994;21.992;2022-10-31T11:27:11;9.80;;;4.40;;
50709;SDS011;37033;49.994;21.992;2022-10-31T11:30:06;9.00;;;4.60;;
50709;SDS011;37033;49.994;21.992;2022-10-31T11:32:58;6.70;;;4.30;;
50709;SDS011;37033;49.994;21.992;2022-10-31T11:35:48;9.80;;;4.30;;
50709;SDS011;37033;49.994;21.992;2022-10-31T11:38:41;10.90;;;4.40;;
50709;SDS011;37033;49.994;21.992;2022-10-31T11:41:33;11.10;;;4.30;;
50709;SDS011;37033;49.994;21.992;2022-10-31T11:44:25;11.40;;;6.70;;
50709;SDS011;37033;49.994;21.992;2022-10-31T11:47:20;12.00;;;4.40;;
50709;SDS011;37033;49.994;21.992;2022-10-31T11:50:18;7.30;;;3.70;;
50709;SDS011;37033;49.994;21.992;2022-10-31T11:53:14;7.00;;;4.30;;
50709;SDS011;37033;49.994;21.992;2022-10-31T11:59:02;6.00;;;3.90;;
50709;SDS011;37033;49.994;21.992;2022-10-31T12:02:00;5.50;;;3.70;;
50709;SDS011;37033;49.994;21.992;2022-10-31T12:05:06;6.70;;;3.60;;
50709;SDS011;37033;49.994;21.992;2022-10-31T12:08:15;10.10;;;4.40;;
50709;SDS011;37033;49.994;21.992;2022-10-31T12:11:08;5.00;;;4.40;;
50709;SDS011;37033;49.994;21.992;2022-10-31T12:14:08;8.20;;;4.20;;
50709;SDS011;37033;49.994;21.992;2022-10-31T12:17:05;8.50;;;4.80;;
50709;SDS011;37033;49.994;21.992;2022-10-31T12:20:02;8.00;;;4.50;;
50709;SDS011;37033;49.994;21.992;2022-10-31T12:23:06;11.40;;;4.80;;
50709;SDS011;37033;49.994;21.992;2022-10-31T12:26:10;7.40;;;4.70;;
50709;SDS011;37033;49.994;21.992;2022-10-31T12:29:22;13.70;;;5.10;;
50709;SDS011;37033;49.994;21.992;2022-10-31T12:32:24;10.90;;;5.00;;
50709;SDS011;37033;49.994;21.992;2022-10-31T12:35:32;7.50;;;4.10;;
50709;SDS011;37033;49.994;21.992;2022-10-31T12:38:38;7.00;;;4.30;;
50709;SDS011;37033;49.994;21.992;2022-10-31T12:41:43;5.60;;;4.00;;
50709;SDS011;37033;49.994;21.992;2022-10-31T12:44:51;13.70;;;4.40;;
50709;SDS011;37033;49.994;21.992;2022-10-31T12:47:52;9.20;;;4.40;;
50709;SDS011;37033;49.994;21.992;2022-10-31T12:50:57;5.40;;;4.30;;
50709;SDS011;37033;49.994;21.992;2022-10-31T12:53:59;12.10;;;4.70;;
50709;SDS011;37033;49.994;21.992;2022-10-31T12:57:06;7.00;;;4.20;;
50709;SDS011;37033;49.994;21.992;2022-10-31T13:00:12;7.70;;;4.00;;
50709;SDS011;37033;49.994;21.992;2022-10-31T13:03:08;13.00;;;4.70;;
50709;SDS011;37033;49.994;21.992;2022-10-31T13:06:18;7.50;;;4.00;;
50709;SDS011;37033;49.994;21.992;2022-10-31T13:09:11;9.80;;;4.60;;
50709;SDS011;37033;49.994;21.992;2022-10-31T13:12:07;6.00;;;4.20;;
50709;SDS011;37033;49.994;21.992;2022-10-31T13:15:01;7.90;;;4.10;;
50709;SDS011;37033;49.994;21.992;2022-10-31T13:18:01;12.20;;;4.40;;
50709;SDS011;37033;49.994;21.992;2022-10-31T13:20:59;14.70;;;4.60;;
50709;SDS011;37033;49.994;21.992;2022-10-31T13:23:55;10.90;;;4.90;;
50709;SDS011;37033;49.994;21.992;2022-10-31T13:26:52;13.10;;;4.30;;
50709;SDS011;37033;49.994;21.992;2022-10-31T13:29:56;10.70;;;4.70;;
50709;SDS011;37033;49.994;21.992;2022-10-31T13:32:51;11.00;;;5.00;;
50709;SDS011;37033;49.994;21.992;2022-10-31T13:35:46;7.40;;;4.50;;
50709;SDS011;37033;49.994;21.992;2022-10-31T13:41:38;11.00;;;5.10;;
50709;SDS011;37033;49.994;21.992;2022-10-31T13:44:34;6.60;;;5.20;;
50709;SDS011;37033;49.994;21.992;2022-10-31T13:47:26;9.30;;;4.90;;
50709;SDS011;37033;49.994;21.992;2022-10-31T13:50:22;8.00;;;4.80;;
50709;SDS011;37033;49.994;21.992;2022-10-31T13:53:18;10.50;;;5.00;;
50709;SDS011;37033;49.994;21.992;2022-10-31T13:56:17;8.70;;;4.30;;
50709;SDS011;37033;49.994;21.992;2022-10-31T13:59:17;11.30;;;4.20;;
50709;SDS011;37033;49.994;21.992;2022-10-31T14:02:14;11.40;;;5.30;;
50709;SDS011;37033;49.994;21.992;2022-10-31T14:05:18;12.10;;;5.20;;
50709;SDS011;37033;49.994;21.992;2022-10-31T14:08:17;11.80;;;4.80;;
50709;SDS011;37033;49.994;21.992;2022-10-31T14:11:09;13.30;;;5.50;;
50709;SDS011;37033;49.994;21.992;2022-10-31T14:14:11;9.70;;;5.90;;
50709;SDS011;37033;49.994;21.992;2022-10-31T14:17:02;9.50;;;5.00;;
50709;SDS011;37033;49.994;21.992;2022-10-31T14:20:01;12.70;;;5.60;;
50709;SDS011;37033;49.994;21.992;2022-10-31T14:23:25;13.40;;;7.20;;
50709;SDS011;37033;49.994;21.992;2022-10-31T14:26:36;12.30;;;6.30;;
50709;SDS011;37033;49.994;21.992;2022-10-31T14:29:28;16.50;;;6.60;;
50709;SDS011;37033;49.994;21.992;2022-10-31T14:32:21;20.10;;;6.30;;
50709;SDS011;37033;49.994;21.992;2022-10-31T14:35:14;23.80;;;8.80;;
50709;SDS011;37033;49.994;21.992;2022-10-31T14:38:14;15.10;;;6.40;;
50709;SDS011;37033;49.994;21.992;2022-10-31T14:41:21;13.00;;;5.80;;
50709;SDS011;37033;49.994;21.992;2022-10-31T14:44:38;8.00;;;5.80;;
50709;SDS011;37033;49.994;21.992;2022-10-31T14:47:42;11.30;;;5.50;;
50709;SDS011;37033;49.994;21.992;2022-10-31T14:50:45;9.00;;;5.30;;
50709;SDS011;37033;49.994;21.992;2022-10-31T14:53:40;16.30;;;6.40;;
50709;SDS011;37033;49.994;21.992;2022-10-31T14:56:35;28.60;;;6.70;;
50709;SDS011;37033;49.994;21.992;2022-10-31T14:59:33;17.20;;;6.50;;
50709;SDS011;37033;49.994;21.992;2022-10-31T15:02:29;16.70;;;8.00;;
50709;SDS011;37033;49.994;21.992;2022-10-31T15:05:23;17.50;;;6.30;;
50709;SDS011;37033;49.994;21.992;2022-10-31T15:08:27;23.30;;;6.70;;
50709;SDS011;37033;49.994;21.992;2022-10-31T15:11:21;17.00;;;8.40;;
50709;SDS011;37033;49.994;21.992;2022-10-31T15:14:20;14.50;;;7.20;;
50709;SDS011;37033;49.994;21.992;2022-10-31T15:17:12;17.70;;;8.80;;
50709;SDS011;37033;49.994;21.992;2022-10-31T15:20:04;24.20;;;10.60;;
50709;SDS011;37033;49.994;21.992;2022-10-31T15:22:56;24.50;;;11.80;;
50709;SDS011;37033;49.994;21.992;2022-10-31T15:25:47;21.70;;;10.60;;
50709;SDS011;37033;49.994;21.992;2022-10-31T15:28:38;19.80;;;10.10;;
50709;SDS011;37033;49.994;21.992;2022-10-31T15:31:28;21.60;;;12.70;;
50709;SDS011;37033;49.994;21.992;2022-10-31T15:34:21;15.60;;;9.90;;
50709;SDS011;37033;49.994;21.992;2022-10-31T15:37:15;22.00;;;10.40;;
50709;SDS011;37033;49.994;21.992;2022-10-31T15:40:12;25.90;;;12.80;;
50709;SDS011;37033;49.994;21.992;2022-10-31T15:43:05;24.30;;;12.80;;
50709;SDS011;37033;49.994;21.992;2022-10-31T15:46:06;28.50;;;15.80;;
50709;SDS011;37033;49.994;21.992;2022-10-31T15:48:57;28.80;;;13.20;;
50709;SDS011;37033;49.994;21.992;2022-10-31T15:51:48;28.00;;;15.40;;
50709;SDS011;37033;49.994;21.992;2022-10-31T15:54:42;37.10;;;19.30;;
50709;SDS011;37033;49.994;21.992;2022-10-31T15:57:40;32.00;;;15.20;;
50709;SDS011;37033;49.994;21.992;2022-10-31T16:00:34;29.50;;;14.80;;
50709;SDS011;37033;49.994;21.992;2022-10-31T16:03:26;24.30;;;12.60;;
50709;SDS011;37033;49.994;21.992;2022-10-31T16:06:20;49.20;;;22.00;;
50709;SDS011;37033;49.994;21.992;2022-10-31T16:09:20;56.30;;;26.60;;
50709;SDS011;37033;49.994;21.992;2022-10-31T16:12:13;49.10;;;25.60;;
50709;SDS011;37033;49.994;21.992;2022-10-31T16:15:05;38.20;;;20.10;;
50709;SDS011;37033;49.994;21.992;2022-10-31T16:18:03;35.50;;;18.30;;
50709;SDS011;37033;49.994;21.992;2022-10-31T16:20:53;34.20;;;16.70;;
50709;SDS011;37033;49.994;21.992;2022-10-31T16:23:46;31.30;;;16.00;;
50709;SDS011;37033;49.994;21.992;2022-10-31T16:29:32;33.00;;;15.30;;
50709;SDS011;37033;49.994;21.992;2022-10-31T16:32:27;34.10;;;14.90;;
50709;SDS011;37033;49.994;21.992;2022-10-31T16:35:26;32.90;;;15.20;;
50709;SDS011;37033;49.994;21.992;2022-10-31T16:38:22;40.90;;;17.10;;
50709;SDS011;37033;49.994;21.992;2022-10-31T16:41:12;41.30;;;18.20;;
50709;SDS011;37033;49.994;21.992;2022-10-31T16:44:03;44.80;;;19.00;;
50709;SDS011;37033;49.994;21.992;2022-10-31T16:47:12;73.20;;;24.10;;
50709;SDS011;37033;49.994;21.992;2022-10-31T16:50:10;86.50;;;26.00;;
50709;SDS011;37033;49.994;21.992;2022-10-31T16:53:03;44.70;;;21.60;;
50709;SDS011;37033;49.994;21.992;2022-10-31T16:55:54;46.00;;;20.40;;
50709;SDS011;37033;49.994;21.992;2022-10-31T16:58:46;48.40;;;19.90;;
50709;SDS011;37033;49.994;21.992;2022-10-31T17:01:37;47.30;;;21.80;;
50709;SDS011;37033;49.994;21.992;2022-10-31T17:04:29;46.60;;;20.90;;
50709;SDS011;37033;49.994;21.992;2022-10-31T17:07:18;44.20;;;21.50;;
50709;SDS011;37033;49.994;21.992;2022-10-31T17:10:10;45.00;;;20.50;;
50709;SDS011;37033;49.994;21.992;2022-10-31T17:13:02;42.10;;;20.40;;